sensor_id;sensor_type;location;lat;lon;timestamp;P1;durP1;ratioP1;P2;durP2;ratioP2
51304;SDS011;37392;50.964;6.952;2022-11-14T00:00:32;9.45;;;5.30;;
51304;SDS011;37392;50.964;6.952;2022-11-14T00:02:59;11.80;;;5.47;;
51304;SDS011;37392;50.964;6.952;2022-11-14T00:05:27;8.95;;;5.53;;
51304;SDS011;37392;50.964;6.952;2022-11-14T00:07:52;8.27;;;5.32;;
51304;SDS011;37392;50.964;6.952;2022-11-14T00:10:18;9.57;;;5.28;;
51304;SDS011;37392;50.964;6.952;2022-11-14T00:12:44;12.90;;;6.07;;
51304;SDS011;37392;50.964;6.952;2022-11-14T00:15:10;15.20;;;6.00;;
51304;SDS011;37392;50.964;6.952;2022-11-14T00:17:37;10.75;;;5.38;;
51304;SDS011;37392;50.964;6.952;2022-11-14T00:20:03;14.10;;;6.55;;
51304;SDS011;37392;50.964;6.952;2022-11-14T00:22:31;8.07;;;4.47;;
51304;SDS011;37392;50.964;6.952;2022-11-14T00:24:56;11.05;;;5.07;;
51304;SDS011;37392;50.964;6.952;2022-11-14T00:27:22;9.60;;;4.82;;
51304;SDS011;37392;50.964;6.952;2022-11-14T00:29:48;9.27;;;5.72;;
51304;SDS011;37392;50.964;6.952;2022-11-14T00:32:13;9.43;;;5.07;;
51304;SDS011;37392;50.964;6.952;2022-11-14T00:34:39;8.73;;;4.85;;
51304;SDS011;37392;50.964;6.952;2022-11-14T00:37:04;13.80;;;5.43;;
51304;SDS011;37392;50.964;6.952;2022-11-14T00:39:30;9.98;;;5.32;;
51304;SDS011;37392;50.964;6.952;2022-11-14T00:41:55;8.63;;;5.10;;
51304;SDS011;37392;50.964;6.952;2022-11-14T00:44:21;9.23;;;4.78;;
51304;SDS011;37392;50.964;6.952;2022-11-14T00:46:46;10.82;;;5.65;;
51304;SDS011;37392;50.964;6.952;2022-11-14T00:49:12;10.68;;;5.30;;
51304;SDS011;37392;50.964;6.952;2022-11-14T00:51:37;9.18;;;5.47;;
51304;SDS011;37392;50.964;6.952;2022-11-14T00:54:03;9.27;;;5.03;;
51304;SDS011;37392;50.964;6.952;2022-11-14T00:56:29;11.82;;;5.03;;
51304;SDS011;37392;50.964;6.952;2022-11-14T00:58:54;10.23;;;4.82;;
51304;SDS011;37392;50.964;6.952;2022-11-14T01:01:20;6.32;;;4.47;;
51304;SDS011;37392;50.964;6.952;2022-11-14T01:03:46;10.25;;;5.53;;
51304;SDS011;37392;50.964;6.952;2022-11-14T01:06:16;10.48;;;5.53;;
51304;SDS011;37392;50.964;6.952;2022-11-14T01:08:43;7.82;;;4.88;;
51304;SDS011;37392;50.964;6.952;2022-11-14T01:11:10;7.90;;;4.90;;
51304;SDS011;37392;50.964;6.952;2022-11-14T01:13:39;10.15;;;5.55;;
51304;SDS011;37392;50.964;6.952;2022-11-14T01:16:05;7.68;;;4.47;;
51304;SDS011;37392;50.964;6.952;2022-11-14T01:18:31;10.40;;;6.35;;
51304;SDS011;37392;50.964;6.952;2022-11-14T01:20:57;10.20;;;5.78;;
51304;SDS011;37392;50.964;6.952;2022-11-14T01:23:22;6.57;;;4.32;;
51304;SDS011;37392;50.964;6.952;2022-11-14T01:25:48;8.60;;;4.90;;
51304;SDS011;37392;50.964;6.952;2022-11-14T01:28:15;9.63;;;5.45;;
51304;SDS011;37392;50.964;6.952;2022-11-14T01:30:43;11.25;;;5.10;;
51304;SDS011;37392;50.964;6.952;2022-11-14T01:33:10;17.55;;;5.38;;
51304;SDS011;37392;50.964;6.952;2022-11-14T01:35:36;9.60;;;4.82;;
51304;SDS011;37392;50.964;6.952;2022-11-14T01:38:03;9.65;;;5.38;;
51304;SDS011;37392;50.964;6.952;2022-11-14T01:40:30;10.50;;;4.43;;
51304;SDS011;37392;50.964;6.952;2022-11-14T01:48:24;13.88;;;5.85;;
51304;SDS011;37392;50.964;6.952;2022-11-14T01:50:58;15.30;;;5.43;;
51304;SDS011;37392;50.964;6.952;2022-11-14T01:53:29;9.30;;;5.43;;
51304;SDS011;37392;50.964;6.952;2022-11-14T01:55:57;11.32;;;5.93;;
51304;SDS011;37392;50.964;6.952;2022-11-14T01:58:25;10.45;;;5.68;;
51304;SDS011;37392;50.964;6.952;2022-11-14T02:00:53;11.75;;;6.15;;
51304;SDS011;37392;50.964;6.952;2022-11-14T02:03:19;8.60;;;5.20;;
51304;SDS011;37392;50.964;6.952;2022-11-14T02:05:45;13.90;;;6.68;;
51304;SDS011;37392;50.964;6.952;2022-11-14T02:08:13;9.95;;;5.50;;
51304;SDS011;37392;50.964;6.952;2022-11-14T02:10:40;11.23;;;5.72;;
51304;SDS011;37392;50.964;6.952;2022-11-14T02:13:06;10.70;;;5.60;;
51304;SDS011;37392;50.964;6.952;2022-11-14T02:15:32;9.55;;;5.63;;
51304;SDS011;37392;50.964;6.952;2022-11-14T02:17:58;11.80;;;5.90;;
51304;SDS011;37392;50.964;6.952;2022-11-14T02:20:26;9.60;;;4.93;;
51304;SDS011;37392;50.964;6.952;2022-11-14T02:25:22;10.68;;;5.47;;
51304;SDS011;37392;50.964;6.952;2022-11-14T02:27:48;11.10;;;6.43;;
51304;SDS011;37392;50.964;6.952;2022-11-14T02:30:19;9.98;;;5.78;;
51304;SDS011;37392;50.964;6.952;2022-11-14T02:32:46;11.02;;;5.78;;
51304;SDS011;37392;50.964;6.952;2022-11-14T02:35:12;13.00;;;5.90;;
51304;SDS011;37392;50.964;6.952;2022-11-14T02:37:37;8.90;;;5.13;;
51304;SDS011;37392;50.964;6.952;2022-11-14T02:40:04;8.45;;;5.25;;
51304;SDS011;37392;50.964;6.952;2022-11-14T02:42:30;13.05;;;5.57;;
51304;SDS011;37392;50.964;6.952;2022-11-14T02:44:56;9.50;;;5.05;;
51304;SDS011;37392;50.964;6.952;2022-11-14T02:47:22;8.68;;;5.30;;
51304;SDS011;37392;50.964;6.952;2022-11-14T02:49:49;9.43;;;5.00;;
51304;SDS011;37392;50.964;6.952;2022-11-14T02:52:15;9.48;;;5.47;;
51304;SDS011;37392;50.964;6.952;2022-11-14T02:54:41;8.30;;;5.53;;
51304;SDS011;37392;50.964;6.952;2022-11-14T02:57:07;8.52;;;5.20;;
51304;SDS011;37392;50.964;6.952;2022-11-14T02:59:32;9.70;;;4.60;;
51304;SDS011;37392;50.964;6.952;2022-11-14T03:01:58;9.88;;;5.32;;
51304;SDS011;37392;50.964;6.952;2022-11-14T03:04:24;11.00;;;5.82;;
51304;SDS011;37392;50.964;6.952;2022-11-14T03:06:50;8.98;;;5.35;;
51304;SDS011;37392;50.964;6.952;2022-11-14T03:09:15;14.70;;;5.57;;
51304;SDS011;37392;50.964;6.952;2022-11-14T03:11:42;8.95;;;5.10;;
51304;SDS011;37392;50.964;6.952;2022-11-14T03:14:08;12.48;;;5.60;;
51304;SDS011;37392;50.964;6.952;2022-11-14T03:16:33;9.65;;;5.03;;
51304;SDS011;37392;50.964;6.952;2022-11-14T03:18:59;10.07;;;5.40;;
51304;SDS011;37392;50.964;6.952;2022-11-14T03:21:25;11.60;;;6.50;;
51304;SDS011;37392;50.964;6.952;2022-11-14T03:23:50;12.13;;;5.15;;
51304;SDS011;37392;50.964;6.952;2022-11-14T03:26:16;9.80;;;4.85;;
51304;SDS011;37392;50.964;6.952;2022-11-14T03:28:41;7.63;;;4.90;;
51304;SDS011;37392;50.964;6.952;2022-11-14T03:31:08;8.55;;;4.97;;
51304;SDS011;37392;50.964;6.952;2022-11-14T03:33:36;7.43;;;5.18;;
51304;SDS011;37392;50.964;6.952;2022-11-14T03:36:02;12.48;;;5.35;;
51304;SDS011;37392;50.964;6.952;2022-11-14T03:38:29;10.07;;;5.45;;
51304;SDS011;37392;50.964;6.952;2022-11-14T03:40:56;10.23;;;5.25;;
51304;SDS011;37392;50.964;6.952;2022-11-14T03:43:23;21.55;;;5.65;;
51304;SDS011;37392;50.964;6.952;2022-11-14T03:45:49;8.63;;;5.10;;
51304;SDS011;37392;50.964;6.952;2022-11-14T03:48:14;8.95;;;5.18;;
51304;SDS011;37392;50.964;6.952;2022-11-14T03:50:40;9.55;;;4.78;;
51304;SDS011;37392;50.964;6.952;2022-11-14T03:53:07;9.85;;;4.30;;
51304;SDS011;37392;50.964;6.952;2022-11-14T03:55:33;16.85;;;5.30;;
51304;SDS011;37392;50.964;6.952;2022-11-14T03:57:59;8.85;;;4.75;;
51304;SDS011;37392;50.964;6.952;2022-11-14T04:00:24;8.93;;;5.20;;
51304;SDS011;37392;50.964;6.952;2022-11-14T04:02:53;11.98;;;4.50;;
51304;SDS011;37392;50.964;6.952;2022-11-14T04:05:20;9.55;;;5.03;;
51304;SDS011;37392;50.964;6.952;2022-11-14T04:07:47;11.60;;;5.43;;
51304;SDS011;37392;50.964;6.952;2022-11-14T04:10:12;9.68;;;5.45;;
51304;SDS011;37392;50.964;6.952;2022-11-14T04:12:38;47.13;;;10.02;;
51304;SDS011;37392;50.964;6.952;2022-11-14T04:15:03;9.70;;;5.22;;
51304;SDS011;37392;50.964;6.952;2022-11-14T04:17:29;9.57;;;5.35;;
51304;SDS011;37392;50.964;6.952;2022-11-14T04:19:55;12.35;;;5.55;;
51304;SDS011;37392;50.964;6.952;2022-11-14T04:22:20;10.93;;;5.68;;
51304;SDS011;37392;50.964;6.952;2022-11-14T04:24:46;10.55;;;5.80;;
51304;SDS011;37392;50.964;6.952;2022-11-14T04:27:11;12.40;;;5.28;;
51304;SDS011;37392;50.964;6.952;2022-11-14T04:29:37;11.98;;;6.82;;
51304;SDS011;37392;50.964;6.952;2022-11-14T04:32:02;12.70;;;6.57;;
51304;SDS011;37392;50.964;6.952;2022-11-14T04:34:28;11.95;;;5.57;;
51304;SDS011;37392;50.964;6.952;2022-11-14T04:36:54;8.57;;;4.93;;
51304;SDS011;37392;50.964;6.952;2022-11-14T04:39:19;11.10;;;5.65;;
51304;SDS011;37392;50.964;6.952;2022-11-14T04:41:45;10.48;;;5.47;;
51304;SDS011;37392;50.964;6.952;2022-11-14T04:44:10;14.75;;;6.63;;
51304;SDS011;37392;50.964;6.952;2022-11-14T04:46:36;14.45;;;6.22;;
51304;SDS011;37392;50.964;6.952;2022-11-14T04:49:02;9.75;;;5.63;;
51304;SDS011;37392;50.964;6.952;2022-11-14T04:51:27;10.65;;;6.00;;
51304;SDS011;37392;50.964;6.952;2022-11-14T04:53:53;10.07;;;5.63;;
51304;SDS011;37392;50.964;6.952;2022-11-14T04:56:18;8.60;;;5.55;;
51304;SDS011;37392;50.964;6.952;2022-11-14T04:58:47;10.63;;;5.70;;
51304;SDS011;37392;50.964;6.952;2022-11-14T05:01:15;10.88;;;5.57;;
51304;SDS011;37392;50.964;6.952;2022-11-14T05:03:41;10.27;;;5.78;;
51304;SDS011;37392;50.964;6.952;2022-11-14T05:06:06;10.88;;;5.95;;
51304;SDS011;37392;50.964;6.952;2022-11-14T05:08:32;13.18;;;5.88;;
51304;SDS011;37392;50.964;6.952;2022-11-14T05:10:58;15.90;;;6.20;;
51304;SDS011;37392;50.964;6.952;2022-11-14T05:13:24;10.88;;;6.35;;
51304;SDS011;37392;50.964;6.952;2022-11-14T05:15:49;9.93;;;5.68;;
51304;SDS011;37392;50.964;6.952;2022-11-14T05:18:15;8.95;;;5.40;;
51304;SDS011;37392;50.964;6.952;2022-11-14T05:20:41;8.10;;;4.72;;
51304;SDS011;37392;50.964;6.952;2022-11-14T05:23:10;9.85;;;6.00;;
51304;SDS011;37392;50.964;6.952;2022-11-14T05:25:46;11.50;;;5.78;;
51304;SDS011;37392;50.964;6.952;2022-11-14T05:28:12;10.82;;;5.35;;
51304;SDS011;37392;50.964;6.952;2022-11-14T05:30:38;12.90;;;6.45;;
51304;SDS011;37392;50.964;6.952;2022-11-14T05:33:03;10.25;;;5.65;;
51304;SDS011;37392;50.964;6.952;2022-11-14T05:35:29;11.27;;;4.97;;
51304;SDS011;37392;50.964;6.952;2022-11-14T05:37:55;17.52;;;6.05;;
51304;SDS011;37392;50.964;6.952;2022-11-14T05:40:20;12.13;;;6.15;;
51304;SDS011;37392;50.964;6.952;2022-11-14T05:42:46;9.85;;;5.25;;
51304;SDS011;37392;50.964;6.952;2022-11-14T05:45:11;11.43;;;6.30;;
51304;SDS011;37392;50.964;6.952;2022-11-14T05:47:37;12.77;;;6.85;;
51304;SDS011;37392;50.964;6.952;2022-11-14T05:50:02;13.80;;;6.00;;
51304;SDS011;37392;50.964;6.952;2022-11-14T05:52:30;15.25;;;6.65;;
51304;SDS011;37392;50.964;6.952;2022-11-14T05:54:55;11.07;;;6.53;;
51304;SDS011;37392;50.964;6.952;2022-11-14T05:57:21;10.30;;;5.72;;
51304;SDS011;37392;50.964;6.952;2022-11-14T05:59:46;11.68;;;6.63;;
51304;SDS011;37392;50.964;6.952;2022-11-14T06:02:12;11.82;;;5.97;;
51304;SDS011;37392;50.964;6.952;2022-11-14T06:04:38;10.18;;;6.60;;
51304;SDS011;37392;50.964;6.952;2022-11-14T06:07:03;19.60;;;7.65;;
51304;SDS011;37392;50.964;6.952;2022-11-14T06:09:29;10.93;;;6.50;;
51304;SDS011;37392;50.964;6.952;2022-11-14T06:11:55;13.27;;;7.05;;
51304;SDS011;37392;50.964;6.952;2022-11-14T06:14:20;13.52;;;7.10;;
51304;SDS011;37392;50.964;6.952;2022-11-14T06:16:46;14.52;;;6.82;;
51304;SDS011;37392;50.964;6.952;2022-11-14T06:19:11;11.52;;;6.45;;
51304;SDS011;37392;50.964;6.952;2022-11-14T06:21:37;12.98;;;8.15;;
51304;SDS011;37392;50.964;6.952;2022-11-14T06:24:02;17.52;;;8.38;;
51304;SDS011;37392;50.964;6.952;2022-11-14T06:26:29;11.85;;;6.60;;
51304;SDS011;37392;50.964;6.952;2022-11-14T06:28:56;15.65;;;7.18;;
51304;SDS011;37392;50.964;6.952;2022-11-14T06:31:23;13.15;;;7.10;;
51304;SDS011;37392;50.964;6.952;2022-11-14T06:33:50;17.20;;;7.90;;
51304;SDS011;37392;50.964;6.952;2022-11-14T06:36:16;14.10;;;7.75;;
51304;SDS011;37392;50.964;6.952;2022-11-14T06:38:42;15.48;;;7.63;;
51304;SDS011;37392;50.964;6.952;2022-11-14T06:43:38;21.70;;;7.90;;
51304;SDS011;37392;50.964;6.952;2022-11-14T06:46:06;12.77;;;7.53;;
51304;SDS011;37392;50.964;6.952;2022-11-14T06:48:33;18.52;;;8.77;;
51304;SDS011;37392;50.964;6.952;2022-11-14T06:51:00;18.58;;;8.75;;
51304;SDS011;37392;50.964;6.952;2022-11-14T06:53:28;24.13;;;8.90;;
51304;SDS011;37392;50.964;6.952;2022-11-14T06:56:00;23.13;;;12.07;;
51304;SDS011;37392;50.964;6.952;2022-11-14T06:58:32;19.98;;;10.55;;
51304;SDS011;37392;50.964;6.952;2022-11-14T07:01:07;22.17;;;11.48;;
51304;SDS011;37392;50.964;6.952;2022-11-14T07:03:39;19.60;;;10.93;;
51304;SDS011;37392;50.964;6.952;2022-11-14T07:06:06;21.45;;;11.07;;
51304;SDS011;37392;50.964;6.952;2022-11-14T07:08:35;21.55;;;12.63;;
51304;SDS011;37392;50.964;6.952;2022-11-14T07:11:05;22.33;;;12.38;;
51304;SDS011;37392;50.964;6.952;2022-11-14T07:13:34;21.88;;;13.25;;
51304;SDS011;37392;50.964;6.952;2022-11-14T07:16:00;24.60;;;13.40;;
51304;SDS011;37392;50.964;6.952;2022-11-14T07:18:30;22.77;;;13.63;;
51304;SDS011;37392;50.964;6.952;2022-11-14T07:20:58;24.50;;;12.93;;
51304;SDS011;37392;50.964;6.952;2022-11-14T07:23:26;21.40;;;9.32;;
51304;SDS011;37392;50.964;6.952;2022-11-14T07:25:51;17.75;;;10.20;;
51304;SDS011;37392;50.964;6.952;2022-11-14T07:28:17;18.90;;;10.25;;
51304;SDS011;37392;50.964;6.952;2022-11-14T07:30:43;17.10;;;10.07;;
51304;SDS011;37392;50.964;6.952;2022-11-14T07:33:08;18.15;;;10.32;;
51304;SDS011;37392;50.964;6.952;2022-11-14T07:35:35;20.70;;;10.43;;
51304;SDS011;37392;50.964;6.952;2022-11-14T07:38:04;19.52;;;9.00;;
51304;SDS011;37392;50.964;6.952;2022-11-14T07:40:29;14.05;;;8.90;;
51304;SDS011;37392;50.964;6.952;2022-11-14T07:42:58;20.52;;;10.50;;
51304;SDS011;37392;50.964;6.952;2022-11-14T07:45:25;19.23;;;10.27;;
51304;SDS011;37392;50.964;6.952;2022-11-14T07:47:54;18.42;;;9.77;;
51304;SDS011;37392;50.964;6.952;2022-11-14T07:50:21;28.63;;;11.18;;
51304;SDS011;37392;50.964;6.952;2022-11-14T07:52:50;26.20;;;9.95;;
51304;SDS011;37392;50.964;6.952;2022-11-14T07:55:17;18.23;;;10.15;;
51304;SDS011;37392;50.964;6.952;2022-11-14T07:57:44;17.73;;;11.05;;
51304;SDS011;37392;50.964;6.952;2022-11-14T08:00:10;20.00;;;10.40;;
51304;SDS011;37392;50.964;6.952;2022-11-14T08:02:38;18.45;;;10.90;;
51304;SDS011;37392;50.964;6.952;2022-11-14T08:05:03;19.80;;;11.50;;
51304;SDS011;37392;50.964;6.952;2022-11-14T08:07:29;44.15;;;14.45;;
51304;SDS011;37392;50.964;6.952;2022-11-14T08:09:55;23.67;;;12.43;;
51304;SDS011;37392;50.964;6.952;2022-11-14T08:12:20;20.58;;;11.50;;
51304;SDS011;37392;50.964;6.952;2022-11-14T08:14:46;31.52;;;11.82;;
51304;SDS011;37392;50.964;6.952;2022-11-14T08:17:12;23.45;;;12.27;;
51304;SDS011;37392;50.964;6.952;2022-11-14T08:19:37;30.50;;;13.95;;
51304;SDS011;37392;50.964;6.952;2022-11-14T08:22:03;24.23;;;13.13;;
51304;SDS011;37392;50.964;6.952;2022-11-14T08:24:28;24.60;;;14.50;;
51304;SDS011;37392;50.964;6.952;2022-11-14T08:26:54;24.38;;;13.57;;
51304;SDS011;37392;50.964;6.952;2022-11-14T08:29:19;26.13;;;14.98;;
51304;SDS011;37392;50.964;6.952;2022-11-14T08:31:45;34.50;;;15.32;;
51304;SDS011;37392;50.964;6.952;2022-11-14T08:34:11;32.78;;;16.45;;
51304;SDS011;37392;50.964;6.952;2022-11-14T08:36:37;29.55;;;14.88;;
51304;SDS011;37392;50.964;6.952;2022-11-14T08:39:02;34.50;;;15.65;;
51304;SDS011;37392;50.964;6.952;2022-11-14T08:41:28;28.17;;;16.40;;
51304;SDS011;37392;50.964;6.952;2022-11-14T08:43:54;34.70;;;16.02;;
51304;SDS011;37392;50.964;6.952;2022-11-14T08:46:20;29.77;;;15.80;;
51304;SDS011;37392;50.964;6.952;2022-11-14T08:48:46;32.92;;;16.10;;
51304;SDS011;37392;50.964;6.952;2022-11-14T08:51:12;30.20;;;15.00;;
51304;SDS011;37392;50.964;6.952;2022-11-14T08:53:37;35.30;;;16.65;;
51304;SDS011;37392;50.964;6.952;2022-11-14T08:56:03;33.17;;;19.00;;
51304;SDS011;37392;50.964;6.952;2022-11-14T08:58:29;30.65;;;18.45;;
51304;SDS011;37392;50.964;6.952;2022-11-14T09:01:02;33.72;;;17.77;;
51304;SDS011;37392;50.964;6.952;2022-11-14T09:03:30;43.33;;;18.83;;
51304;SDS011;37392;50.964;6.952;2022-11-14T09:06:00;38.97;;;17.60;;
51304;SDS011;37392;50.964;6.952;2022-11-14T09:08:27;39.85;;;18.02;;
51304;SDS011;37392;50.964;6.952;2022-11-14T09:10:53;37.20;;;18.75;;
51304;SDS011;37392;50.964;6.952;2022-11-14T09:13:19;41.83;;;19.65;;
51304;SDS011;37392;50.964;6.952;2022-11-14T09:15:44;35.92;;;17.20;;
51304;SDS011;37392;50.964;6.952;2022-11-14T09:18:10;33.53;;;17.67;;
51304;SDS011;37392;50.964;6.952;2022-11-14T09:20:36;33.20;;;16.92;;
51304;SDS011;37392;50.964;6.952;2022-11-14T09:23:03;33.92;;;18.23;;
51304;SDS011;37392;50.964;6.952;2022-11-14T09:25:29;45.65;;;18.00;;
51304;SDS011;37392;50.964;6.952;2022-11-14T09:27:55;41.85;;;18.35;;
51304;SDS011;37392;50.964;6.952;2022-11-14T09:30:21;37.83;;;18.92;;
51304;SDS011;37392;50.964;6.952;2022-11-14T09:32:48;40.67;;;19.05;;
51304;SDS011;37392;50.964;6.952;2022-11-14T09:35:14;42.60;;;20.10;;
51304;SDS011;37392;50.964;6.952;2022-11-14T09:37:40;43.95;;;20.02;;
51304;SDS011;37392;50.964;6.952;2022-11-14T09:40:05;41.17;;;20.95;;
51304;SDS011;37392;50.964;6.952;2022-11-14T09:45:54;44.13;;;21.10;;
51304;SDS011;37392;50.964;6.952;2022-11-14T09:48:21;40.85;;;19.38;;
51304;SDS011;37392;50.964;6.952;2022-11-14T09:51:06;45.78;;;20.77;;
51304;SDS011;37392;50.964;6.952;2022-11-14T09:53:45;45.85;;;20.67;;
51304;SDS011;37392;50.964;6.952;2022-11-14T09:56:19;43.28;;;20.63;;
51304;SDS011;37392;50.964;6.952;2022-11-14T09:58:51;47.28;;;20.95;;
51304;SDS011;37392;50.964;6.952;2022-11-14T10:10:44;41.83;;;19.83;;
51304;SDS011;37392;50.964;6.952;2022-11-14T10:13:35;44.80;;;20.13;;
51304;SDS011;37392;50.964;6.952;2022-11-14T10:19:17;46.75;;;19.92;;
51304;SDS011;37392;50.964;6.952;2022-11-14T10:27:32;44.63;;;18.67;;
51304;SDS011;37392;50.964;6.952;2022-11-14T10:30:23;40.85;;;20.58;;
51304;SDS011;37392;50.964;6.952;2022-11-14T10:36:20;50.20;;;21.52;;
51304;SDS011;37392;50.964;6.952;2022-11-14T10:41:42;38.85;;;19.48;;
51304;SDS011;37392;50.964;6.952;2022-11-14T10:44:11;41.88;;;18.30;;
51304;SDS011;37392;50.964;6.952;2022-11-14T10:46:50;39.25;;;17.83;;
51304;SDS011;37392;50.964;6.952;2022-11-14T10:49:25;39.08;;;19.17;;
51304;SDS011;37392;50.964;6.952;2022-11-14T10:51:53;34.88;;;19.98;;
51304;SDS011;37392;50.964;6.952;2022-11-14T10:54:26;36.40;;;18.85;;
51304;SDS011;37392;50.964;6.952;2022-11-14T10:57:01;44.42;;;20.15;;
51304;SDS011;37392;50.964;6.952;2022-11-14T10:59:26;44.72;;;20.17;;
51304;SDS011;37392;50.964;6.952;2022-11-14T11:01:53;38.83;;;19.23;;
51304;SDS011;37392;50.964;6.952;2022-11-14T11:04:25;43.13;;;19.50;;
51304;SDS011;37392;50.964;6.952;2022-11-14T11:07:42;37.72;;;18.95;;
51304;SDS011;37392;50.964;6.952;2022-11-14T11:10:26;41.55;;;19.77;;
51304;SDS011;37392;50.964;6.952;2022-11-14T11:13:11;40.90;;;20.30;;
51304;SDS011;37392;50.964;6.952;2022-11-14T11:15:54;85.18;;;35.90;;
51304;SDS011;37392;50.964;6.952;2022-11-14T11:18:24;42.45;;;19.77;;
51304;SDS011;37392;50.964;6.952;2022-11-14T11:21:02;39.90;;;21.63;;
51304;SDS011;37392;50.964;6.952;2022-11-14T11:23:31;38.70;;;20.27;;
51304;SDS011;37392;50.964;6.952;2022-11-14T11:25:58;33.15;;;18.83;;
51304;SDS011;37392;50.964;6.952;2022-11-14T11:28:32;41.97;;;21.35;;
51304;SDS011;37392;50.964;6.952;2022-11-14T11:31:06;34.63;;;18.95;;
51304;SDS011;37392;50.964;6.952;2022-11-14T11:33:37;47.75;;;21.35;;
51304;SDS011;37392;50.964;6.952;2022-11-14T11:38:40;47.58;;;21.40;;
51304;SDS011;37392;50.964;6.952;2022-11-14T11:43:55;41.08;;;20.27;;
51304;SDS011;37392;50.964;6.952;2022-11-14T11:49:10;39.70;;;20.02;;
51304;SDS011;37392;50.964;6.952;2022-11-14T11:51:53;39.80;;;20.20;;
51304;SDS011;37392;50.964;6.952;2022-11-14T11:54:26;41.75;;;20.17;;
51304;SDS011;37392;50.964;6.952;2022-11-14T11:56:58;35.92;;;20.15;;
51304;SDS011;37392;50.964;6.952;2022-11-14T11:59:30;41.55;;;21.85;;
51304;SDS011;37392;50.964;6.952;2022-11-14T12:02:01;37.88;;;20.00;;
51304;SDS011;37392;50.964;6.952;2022-11-14T12:04:50;44.47;;;21.70;;
51304;SDS011;37392;50.964;6.952;2022-11-14T12:07:20;39.08;;;20.33;;
51304;SDS011;37392;50.964;6.952;2022-11-14T12:09:53;42.33;;;20.02;;
51304;SDS011;37392;50.964;6.952;2022-11-14T12:12:33;45.75;;;21.75;;
51304;SDS011;37392;50.964;6.952;2022-11-14T12:15:30;45.25;;;22.20;;
51304;SDS011;37392;50.964;6.952;2022-11-14T12:30:20;38.50;;;20.60;;
51304;SDS011;37392;50.964;6.952;2022-11-14T12:33:00;40.25;;;21.02;;
51304;SDS011;37392;50.964;6.952;2022-11-14T12:35:36;39.58;;;19.90;;
51304;SDS011;37392;50.964;6.952;2022-11-14T12:38:13;44.70;;;21.08;;
51304;SDS011;37392;50.964;6.952;2022-11-14T12:40:53;44.00;;;22.17;;
51304;SDS011;37392;50.964;6.952;2022-11-14T12:43:32;53.08;;;21.52;;
51304;SDS011;37392;50.964;6.952;2022-11-14T12:46:05;38.92;;;21.77;;
51304;SDS011;37392;50.964;6.952;2022-11-14T12:48:36;46.83;;;24.13;;
51304;SDS011;37392;50.964;6.952;2022-11-14T12:53:51;59.13;;;27.95;;
51304;SDS011;37392;50.964;6.952;2022-11-14T12:59:15;45.85;;;23.48;;
51304;SDS011;37392;50.964;6.952;2022-11-14T13:05:35;74.57;;;35.03;;
51304;SDS011;37392;50.964;6.952;2022-11-14T13:11:36;35.05;;;20.50;;
51304;SDS011;37392;50.964;6.952;2022-11-14T13:14:25;39.42;;;20.42;;
51304;SDS011;37392;50.964;6.952;2022-11-14T13:20:59;49.72;;;21.25;;
51304;SDS011;37392;50.964;6.952;2022-11-14T13:36:40;37.33;;;20.52;;
51304;SDS011;37392;50.964;6.952;2022-11-14T13:40:08;38.72;;;18.98;;
51304;SDS011;37392;50.964;6.952;2022-11-14T13:45:35;37.33;;;19.10;;
51304;SDS011;37392;50.964;6.952;2022-11-14T13:51:04;45.55;;;20.48;;
51304;SDS011;37392;50.964;6.952;2022-11-14T13:53:35;42.08;;;20.90;;
51304;SDS011;37392;50.964;6.952;2022-11-14T13:56:07;43.15;;;20.65;;
51304;SDS011;37392;50.964;6.952;2022-11-14T13:58:55;37.75;;;20.75;;
51304;SDS011;37392;50.964;6.952;2022-11-14T14:10:28;44.83;;;20.67;;
51304;SDS011;37392;50.964;6.952;2022-11-14T14:19:42;40.60;;;20.40;;
51304;SDS011;37392;50.964;6.952;2022-11-14T14:33:41;40.40;;;18.92;;
51304;SDS011;37392;50.964;6.952;2022-11-14T14:36:16;37.80;;;20.48;;
51304;SDS011;37392;50.964;6.952;2022-11-14T14:38:50;41.75;;;20.88;;
51304;SDS011;37392;50.964;6.952;2022-11-14T14:41:37;39.45;;;20.30;;
51304;SDS011;37392;50.964;6.952;2022-11-14T14:44:02;39.13;;;20.58;;
51304;SDS011;37392;50.964;6.952;2022-11-14T14:46:29;39.78;;;20.38;;
51304;SDS011;37392;50.964;6.952;2022-11-14T14:48:57;36.28;;;18.55;;
51304;SDS011;37392;50.964;6.952;2022-11-14T14:51:31;36.63;;;20.13;;
51304;SDS011;37392;50.964;6.952;2022-11-14T14:54:02;35.92;;;18.95;;
51304;SDS011;37392;50.964;6.952;2022-11-14T14:56:31;42.75;;;20.00;;
51304;SDS011;37392;50.964;6.952;2022-11-14T14:58:57;36.25;;;20.85;;
51304;SDS011;37392;50.964;6.952;2022-11-14T15:01:32;43.22;;;19.27;;
51304;SDS011;37392;50.964;6.952;2022-11-14T15:09:09;35.50;;;18.05;;
51304;SDS011;37392;50.964;6.952;2022-11-14T15:11:49;33.53;;;17.38;;
51304;SDS011;37392;50.964;6.952;2022-11-14T15:14:22;36.83;;;20.63;;
51304;SDS011;37392;50.964;6.952;2022-11-14T15:16:52;51.33;;;23.95;;
51304;SDS011;37392;50.964;6.952;2022-11-14T15:19:21;40.15;;;20.02;;
51304;SDS011;37392;50.964;6.952;2022-11-14T15:22:03;34.40;;;18.27;;
51304;SDS011;37392;50.964;6.952;2022-11-14T15:27:54;38.60;;;19.48;;
51304;SDS011;37392;50.964;6.952;2022-11-14T15:30:31;30.38;;;18.17;;
51304;SDS011;37392;50.964;6.952;2022-11-14T15:33:02;35.67;;;18.88;;
51304;SDS011;37392;50.964;6.952;2022-11-14T15:35:33;36.63;;;19.17;;
51304;SDS011;37392;50.964;6.952;2022-11-14T15:40:35;29.88;;;18.17;;
51304;SDS011;37392;50.964;6.952;2022-11-14T15:46:22;32.42;;;18.30;;
51304;SDS011;37392;50.964;6.952;2022-11-14T15:51:55;39.10;;;20.45;;
51304;SDS011;37392;50.964;6.952;2022-11-14T15:54:24;36.55;;;20.92;;
51304;SDS011;37392;50.964;6.952;2022-11-14T15:56:53;37.72;;;18.55;;
51304;SDS011;37392;50.964;6.952;2022-11-14T15:59:36;28.60;;;17.50;;
51304;SDS011;37392;50.964;6.952;2022-11-14T16:02:03;36.40;;;18.48;;
51304;SDS011;37392;50.964;6.952;2022-11-14T16:04:40;31.13;;;17.63;;
51304;SDS011;37392;50.964;6.952;2022-11-14T16:07:14;33.47;;;17.77;;
51304;SDS011;37392;50.964;6.952;2022-11-14T16:09:41;32.42;;;18.42;;
51304;SDS011;37392;50.964;6.952;2022-11-14T16:12:07;34.92;;;18.20;;
51304;SDS011;37392;50.964;6.952;2022-11-14T16:14:33;33.97;;;17.75;;
51304;SDS011;37392;50.964;6.952;2022-11-14T16:16:59;34.65;;;17.38;;
51304;SDS011;37392;50.964;6.952;2022-11-14T16:19:31;44.55;;;18.50;;
51304;SDS011;37392;50.964;6.952;2022-11-14T16:21:58;34.83;;;19.27;;
51304;SDS011;37392;50.964;6.952;2022-11-14T16:24:26;33.67;;;19.05;;
51304;SDS011;37392;50.964;6.952;2022-11-14T16:26:57;36.40;;;18.80;;
51304;SDS011;37392;50.964;6.952;2022-11-14T16:29:23;36.63;;;18.50;;
51304;SDS011;37392;50.964;6.952;2022-11-14T16:31:49;34.40;;;18.25;;
51304;SDS011;37392;50.964;6.952;2022-11-14T16:34:20;39.42;;;20.08;;
51304;SDS011;37392;50.964;6.952;2022-11-14T16:36:48;33.83;;;17.85;;
51304;SDS011;37392;50.964;6.952;2022-11-14T16:39:22;33.53;;;17.00;;
51304;SDS011;37392;50.964;6.952;2022-11-14T16:41:48;31.63;;;16.95;;
51304;SDS011;37392;50.964;6.952;2022-11-14T16:44:17;29.48;;;16.60;;
51304;SDS011;37392;50.964;6.952;2022-11-14T16:46:43;29.80;;;16.45;;
51304;SDS011;37392;50.964;6.952;2022-11-14T16:49:11;24.92;;;17.20;;
51304;SDS011;37392;50.964;6.952;2022-11-14T16:51:42;29.35;;;17.23;;
51304;SDS011;37392;50.964;6.952;2022-11-14T16:54:12;26.80;;;16.08;;
51304;SDS011;37392;50.964;6.952;2022-11-14T16:56:38;30.02;;;16.55;;
51304;SDS011;37392;50.964;6.952;2022-11-14T16:59:04;30.25;;;16.77;;